This is the latest recevied weather packets stored in our database for station/object I3RKE-10. If no packets are shown the sender has not sent any weather packets the latest 10 day(s).
| Time | Temp. | Humidity | Pressure | Rain* | Wind** | Luminosity | Snow |
|---|---|---|---|---|---|---|---|
| 1777884107 | 22.22° C | 33% | 1011.7 hPa | - | - | - | - |
| 1777883207 | 22.78° C | 34% | 1011.6 hPa | - | - | - | - |
| 1777882307 | 22.22° C | 35% | 1011.6 hPa | - | - | - | - |
| 1777881407 | 20.56° C | 39% | 1011.6 hPa | - | - | - | - |
| 1777880504 | 20.56° C | 41% | 1011.5 hPa | - | - | - | - |
| 1777879604 | 20° C | 42% | 1011.4 hPa | - | - | - | - |
| 1777878704 | 19.44° C | 43% | 1011.4 hPa | - | - | - | - |
| 1777877804 | 19.44° C | 45% | 1011.3 hPa | - | - | - | - |
| 1777876904 | 18.89° C | 46% | 1011.3 hPa | - | - | - | - |
| 1777876103 | 17.22° C | 51% | 1011.2 hPa | - | - | - | - |
| 1777876010 | 17.22° C | 51% | 1011.2 hPa | - | - | - | - |
| 1777875104 | 17.22° C | 53% | 1011.1 hPa | - | - | - | - |
| 1777874204 | 15.56° C | 58% | 1011.1 hPa | - | - | - | - |
| 1777873303 | 15° C | 61% | 1011 hPa | - | - | - | - |
| 1777872403 | 13.89° C | 63% | 1011 hPa | - | - | - | - |
| 1777871503 | 13.89° C | 62% | 1010.8 hPa | - | - | - | - |
| 1777870603 | 13.33° C | 64% | 1010.8 hPa | - | - | - | - |
| 1777869703 | 12.78° C | 64% | 1010.8 hPa | - | - | - | - |
| 1777868803 | 12.22° C | 67% | 1010.6 hPa | - | - | - | - |
| 1777867903 | 12.22° C | 66% | 1010.5 hPa | - | - | - | - |
| 1777867003 | 12.22° C | 67% | 1010.5 hPa | - | - | - | - |
| 1777866103 | 12.22° C | 66% | 1010.5 hPa | - | - | - | - |
| 1777865203 | 12.78° C | 66% | 1010.6 hPa | - | - | - | - |
| 1777847197 | 15° C | 57% | 1011 hPa | - | - | - | - |
| 1777846297 | 15° C | 57% | 1010.8 hPa | - | - | - | - |
* Rain since midnight (hover to see other rain measurements)
** Current wind speed in m/s (hover to see current wind gust speed)